Time;durP1;ratioP1;P1;durP2;ratioP2;P2;SDS_P1;SDS_P2;PMS_P1;PMS_P2;Temp;Humidity;BMP_temperature;BMP_pressure;BME280_temperature;BME280_humidity;BME280_pressure;Samples;Min_cycle;Max_cycle;Signal;HPM_P1;HPM_P2
2023/08/23 00:00:08;;;;;;;9.27;1.30;;;22.80;93.30;;;;;;4067426;29;20056;-62
2023/08/23 00:02:10;;;;;;;6.13;1.50;;;22.70;93.40;;;;;;4067445;29;20076;-62
2023/08/23 00:04:13;;;;;;;4.43;1.08;;;22.70;93.40;;;;;;4067573;29;20047;-62
2023/08/23 00:06:15;;;;;;;6.13;1.25;;;22.70;93.30;;;;;;4070390;29;20078;-61
2023/08/23 00:08:17;;;;;;;3.70;1.55;;;22.70;93.30;;;;;;4070706;29;20102;-63
2023/08/23 00:10:19;;;;;;;3.30;1.33;;;22.60;93.40;;;;;;4071045;29;20074;-62
2023/08/23 00:12:21;;;;;;;5.80;1.50;;;22.70;93.30;;;;;;4069788;29;20100;-64
2023/08/23 00:14:23;;;;;;;7.88;1.65;;;22.70;93.30;;;;;;4069247;29;20132;-64
2023/08/23 00:16:26;;;;;;;3.72;1.00;;;22.60;93.30;;;;;;4070864;29;20048;-61
2023/08/23 00:18:28;;;;;;;8.80;1.55;;;22.70;93.20;;;;;;4070842;29;20051;-61
2023/08/23 00:20:31;;;;;;;4.43;1.70;;;22.60;93.20;;;;;;4070739;29;20063;-62
2023/08/23 00:22:33;;;;;;;4.80;1.65;;;22.60;93.20;;;;;;4069524;29;20048;-63
2023/08/23 00:24:35;;;;;;;1.92;0.90;;;22.60;93.30;;;;;;4070605;29;20048;-63
2023/08/23 00:26:37;;;;;;;8.57;1.33;;;22.50;93.30;;;;;;4070700;29;20067;-64
2023/08/23 00:28:40;;;;;;;3.35;1.10;;;22.50;93.30;;;;;;4071142;29;20186;-61
2023/08/23 00:30:48;;;;;;;3.55;1.38;;;22.50;93.20;;;;;;4070469;29;20059;-62
2023/08/23 00:32:50;;;;;;;2.17;1.20;;;22.50;93.20;;;;;;4068293;29;20075;-62
2023/08/23 00:34:53;;;;;;;4.90;1.33;;;22.40;93.20;;;;;;4070527;29;20071;-61
2023/08/23 00:36:56;;;;;;;4.72;1.15;;;22.50;93.20;;;;;;4070492;29;20059;-62
2023/08/23 00:38:58;;;;;;;5.20;1.60;;;22.50;93.20;;;;;;4070282;29;20415;-62
2023/08/23 00:41:00;;;;;;;2.40;1.10;;;22.50;93.20;;;;;;4070381;29;20087;-61
2023/08/23 00:43:06;;;;;;;5.95;1.10;;;22.50;93.10;;;;;;4069235;29;20040;-61
2023/08/23 00:45:09;;;;;;;2.38;1.10;;;22.40;93.10;;;;;;4070440;29;20060;-61
2023/08/23 00:47:11;;;;;;;3.60;1.38;;;22.30;93.20;;;;;;4070172;29;20048;-64
2023/08/23 00:49:14;;;;;;;8.00;1.35;;;22.40;93.20;;;;;;4070722;29;20111;-61
2023/08/23 00:51:17;;;;;;;2.67;1.25;;;22.40;93.50;;;;;;4070128;29;20414;-61
2023/08/23 00:53:20;;;;;;;4.93;1.25;;;22.40;93.40;;;;;;4069229;29;20481;-62
2023/08/23 00:55:23;;;;;;;5.80;1.60;;;22.40;93.40;;;;;;4070414;29;20513;-62
2023/08/23 00:57:25;;;;;;;4.43;1.42;;;22.40;93.20;;;;;;4070576;29;20063;-62
2023/08/23 00:59:30;;;;;;;3.83;1.63;;;22.40;93.30;;;;;;4070139;29;20132;-62
2023/08/23 01:01:32;;;;;;;5.07;1.83;;;22.40;93.30;;;;;;4070295;29;20055;-62
2023/08/23 01:03:34;;;;;;;2.13;1.13;;;22.40;93.00;;;;;;4069074;29;20127;-61
2023/08/23 01:06:00;;;;;;;7.88;1.33;;;22.40;93.00;;;;;;4070003;29;20432;-62
2023/08/23 01:08:09;;;;;;;5.35;1.90;;;22.30;93.30;;;;;;4070139;29;20076;-61
2023/08/23 01:10:22;;;;;;;3.85;1.58;;;22.30;93.10;;;;;;4070110;29;20071;-61
2023/08/23 01:12:34;;;;;;;5.57;1.42;;;22.30;93.10;;;;;;4069559;29;20052;-61
2023/08/23 01:14:43;;;;;;;3.95;1.80;;;22.30;93.10;;;;;;4069409;29;20363;-61
2023/08/23 01:16:49;;;;;;;2.55;1.15;;;22.20;93.10;;;;;;4068727;29;20103;-61
2023/08/23 01:18:54;;;;;;;2.55;1.23;;;22.30;93.20;;;;;;4069574;29;20056;-63
2023/08/23 01:20:59;;;;;;;5.38;1.98;;;22.20;93.50;;;;;;4069733;29;20052;-63
2023/08/23 01:23:08;;;;;;;;;;;22.20;93.30;;;;;;4069460;29;20497;-64
2023/08/23 01:25:10;;;;;;;6.65;2.17;;;22.20;93.20;;;;;;4069864;29;20180;-63
2023/08/23 01:27:12;;;;;;;5.90;1.80;;;22.20;93.40;;;;;;4068461;29;20078;-63
2023/08/23 01:29:15;;;;;;;6.75;1.70;;;22.20;93.20;;;;;;4069622;29;20044;-64
2023/08/23 01:31:20;;;;;;;3.70;1.60;;;22.10;93.20;;;;;;4070048;29;20494;-62
2023/08/23 01:33:31;;;;;;;3.75;1.45;;;22.10;93.20;;;;;;4068845;29;20067;-62
2023/08/23 01:35:41;;;;;;;4.03;1.58;;;22.10;93.30;;;;;;4069329;29;20426;-63
2023/08/23 01:37:48;;;;;;;3.28;1.20;;;22.10;93.30;;;;;;4068187;29;20058;-62
2023/08/23 01:39:54;;;;;;;8.73;1.48;;;22.10;93.20;;;;;;4069735;29;20048;-62
2023/08/23 01:41:57;;;;;;;2.88;1.38;;;22.10;93.30;;;;;;4069683;29;20074;-62
2023/08/23 01:44:00;;;;;;;2.97;1.30;;;22.10;93.50;;;;;;4068525;29;20467;-62
2023/08/23 01:46:02;;;;;;;4.35;1.20;;;22.10;93.50;;;;;;4069777;29;20472;-61
2023/08/23 01:48:04;;;;;;;7.63;1.35;;;22.10;93.60;;;;;;4069457;29;20070;-63
2023/08/23 01:50:07;;;;;;;4.88;1.10;;;22.00;93.50;;;;;;4069603;29;20059;-63
2023/08/23 01:52:09;;;;;;;3.13;1.35;;;22.00;93.60;;;;;;4067963;29;20437;-63
2023/08/23 01:54:12;;;;;;;3.72;1.13;;;22.00;93.50;;;;;;4068740;29;20106;-63
2023/08/23 01:56:15;;;;;;;3.72;1.10;;;22.00;93.50;;;;;;4068270;29;20535;-63
2023/08/23 01:58:17;;;;;;;5.32;1.30;;;22.00;93.60;;;;;;4069072;29;20068;-61
2023/08/23 02:00:19;;;;;;;4.30;1.23;;;21.90;93.60;;;;;;4069473;29;20051;-63
2023/08/23 02:02:22;;;;;;;3.65;1.13;;;22.00;93.80;;;;;;4069224;29;20210;-64
2023/08/23 02:04:24;;;;;;;4.82;1.40;;;21.90;93.90;;;;;;4068184;29;20387;-61
2023/08/23 02:06:26;;;;;;;3.13;1.25;;;21.80;93.80;;;;;;4069403;29;20096;-61
2023/08/23 02:08:28;;;;;;;2.20;1.17;;;21.90;93.80;;;;;;4069277;29;20144;-61
2023/08/23 02:10:30;;;;;;;3.97;1.20;;;21.80;94.10;;;;;;4069342;29;20052;-61
2023/08/23 02:12:34;;;;;;;4.72;1.13;;;21.70;94.10;;;;;;4068750;29;20577;-64
2023/08/23 02:14:36;;;;;;;2.63;1.10;;;21.70;94.10;;;;;;4068336;29;20048;-63
2023/08/23 02:16:38;;;;;;;4.85;1.33;;;21.80;94.10;;;;;;4069178;29;20048;-63
2023/08/23 02:18:40;;;;;;;4.43;1.23;;;21.80;94.00;;;;;;4069219;29;20051;-61
2023/08/23 02:20:42;;;;;;;4.82;1.60;;;21.80;94.10;;;;;;4067598;29;20044;-61
2023/08/23 02:22:44;;;;;;;2.88;1.20;;;21.70;94.50;;;;;;4068019;29;20051;-61
2023/08/23 02:24:46;;;;;;;3.65;1.20;;;21.70;94.30;;;;;;4068914;29;20055;-61
2023/08/23 02:26:48;;;;;;;2.67;0.93;;;21.70;94.40;;;;;;4069150;29;20127;-61
2023/08/23 02:28:52;;;;;;;2.95;1.00;;;21.70;94.30;;;;;;4068927;29;20048;-61
2023/08/23 02:31:01;;;;;;;1.73;0.95;;;21.70;94.40;;;;;;4069035;29;20056;-62
2023/08/23 02:33:03;;;;;;;7.55;1.30;;;21.70;94.30;;;;;;4068156;29;20052;-62
2023/08/23 02:35:06;;;;;;;5.28;0.95;;;21.60;94.30;;;;;;4068773;29;20040;-61
2023/08/23 02:37:08;;;;;;;5.07;1.15;;;21.60;94.40;;;;;;4068554;29;20509;-62
2023/08/23 02:39:11;;;;;;;3.80;1.08;;;21.60;94.30;;;;;;4068979;29;20092;-64
2023/08/23 02:41:13;;;;;;;2.38;1.00;;;21.60;94.70;;;;;;4068659;29;20059;-62
2023/08/23 02:43:15;;;;;;;2.35;1.15;;;21.60;94.30;;;;;;4068119;29;20048;-61
2023/08/23 02:45:19;;;;;;;3.13;1.45;;;21.60;94.50;;;;;;4068447;29;20056;-61
2023/08/23 02:47:21;;;;;;;5.28;1.20;;;21.60;94.40;;;;;;4068558;29;20139;-63
2023/08/23 02:49:23;;;;;;;4.47;1.13;;;21.60;94.40;;;;;;4068080;29;20062;-62
2023/08/23 02:51:25;;;;;;;4.40;1.05;;;21.50;94.50;;;;;;4068611;29;20064;-65
2023/08/23 02:53:27;;;;;;;5.68;1.10;;;21.50;94.80;;;;;;4067581;29;20082;-61
2023/08/23 02:55:30;;;;;;;3.65;1.10;;;21.50;94.60;;;;;;4068422;29;20103;-59
2023/08/23 02:57:32;;;;;;;2.78;1.10;;;21.50;94.70;;;;;;4068251;29;20130;-61
2023/08/23 02:59:34;;;;;;;3.03;1.30;;;21.50;94.60;;;;;;4068232;29;20048;-63
2023/08/23 03:01:37;;;;;;;3.35;1.10;;;21.60;94.50;;;;;;4067430;29;20067;-61
2023/08/23 03:03:39;;;;;;;3.50;1.10;;;21.50;94.70;;;;;;4066945;29;20388;-62
2023/08/23 03:05:49;;;;;;;5.30;1.50;;;21.50;94.60;;;;;;4067075;29;20047;-61
2023/08/23 03:07:51;;;;;;;2.50;1.00;;;21.50;94.70;;;;;;4068126;29;20072;-64
2023/08/23 03:09:53;;;;;;;10.13;1.48;;;21.50;94.80;;;;;;4068433;29;20055;-64
2023/08/23 03:11:55;;;;;;;5.80;1.38;;;21.40;94.90;;;;;;4067958;29;20064;-64
2023/08/23 03:13:57;;;;;;;3.22;1.20;;;21.40;95.00;;;;;;4067074;29;20056;-64
2023/08/23 03:16:00;;;;;;;5.20;1.33;;;21.40;95.20;;;;;;4068004;29;20126;-64
2023/08/23 03:18:04;;;;;;;4.85;1.20;;;21.30;95.10;;;;;;4068022;29;20590;-62
2023/08/23 03:20:07;;;;;;;2.10;1.10;;;21.40;95.10;;;;;;4068046;29;20059;-63
2023/08/23 03:22:09;;;;;;;2.60;1.10;;;21.40;95.10;;;;;;4082697;29;20462;-62
2023/08/23 03:24:11;;;;;;;4.82;1.10;;;21.40;95.50;;;;;;4066848;29;20052;-62
2023/08/23 03:26:13;;;;;;;4.68;1.60;;;21.30;95.40;;;;;;4068117;29;20048;-60
2023/08/23 03:28:16;;;;;;;4.80;1.30;;;21.30;95.50;;;;;;4067895;29;20503;-60
2023/08/23 03:30:18;;;;;;;5.10;1.30;;;21.30;95.40;;;;;;4067840;29;20060;-60
2023/08/23 03:32:20;;;;;;;2.88;1.05;;;21.30;95.30;;;;;;4067535;29;20123;-60
2023/08/23 03:34:24;;;;;;;5.00;1.17;;;21.20;95.50;;;;;;4066915;29;20119;-60
2023/08/23 03:36:26;;;;;;;5.43;1.45;;;21.20;95.50;;;;;;4067880;29;20048;-61
2023/08/23 03:38:28;;;;;;;2.97;1.20;;;21.10;95.60;;;;;;4067816;29;20283;-61
2023/08/23 03:40:34;;;;;;;5.40;1.10;;;21.10;95.50;;;;;;4067341;29;20406;-60
2023/08/23 03:42:36;;;;;;;2.13;0.95;;;21.20;95.60;;;;;;4067706;29;20382;-61
2023/08/23 03:44:38;;;;;;;3.35;1.13;;;21.10;95.80;;;;;;4066972;29;20048;-61
2023/08/23 03:46:40;;;;;;;3.45;1.33;;;21.00;95.80;;;;;;4067573;29;20048;-61
2023/08/23 03:48:42;;;;;;;4.05;1.38;;;21.00;95.90;;;;;;4067600;29;20048;-61
2023/08/23 03:50:46;;;;;;;3.45;1.20;;;21.00;96.10;;;;;;4067807;29;20055;-60
2023/08/23 03:52:48;;;;;;;2.72;1.40;;;21.00;96.30;;;;;;4067501;29;20103;-60
2023/08/23 03:54:50;;;;;;;3.65;1.33;;;20.90;96.10;;;;;;4066948;29;20044;-61
2023/08/23 03:56:52;;;;;;;3.85;1.30;;;21.00;96.20;;;;;;4067844;29;20056;-60
2023/08/23 03:58:56;;;;;;;3.58;1.20;;;21.00;96.20;;;;;;4067587;29;20092;-61
2023/08/23 04:00:58;;;;;;;2.47;1.10;;;21.00;96.00;;;;;;4067298;29;20052;-60
2023/08/23 04:03:01;;;;;;;2.97;1.20;;;21.00;96.10;;;;;;4067165;29;20044;-61
2023/08/23 04:05:06;;;;;;;2.42;1.15;;;21.00;96.10;;;;;;4067610;29;20044;-63
2023/08/23 04:07:12;;;;;;;3.00;1.10;;;21.00;96.20;;;;;;4067796;29;20063;-63
2023/08/23 04:09:14;;;;;;;3.03;1.30;;;20.90;96.30;;;;;;4067630;29;20056;-61
2023/08/23 04:11:16;;;;;;;6.63;1.65;;;20.90;96.30;;;;;;4067807;29;20052;-61
2023/08/23 04:13:18;;;;;;;5.55;1.90;;;21.00;96.30;;;;;;4066798;29;20059;-63
2023/08/23 04:15:20;;;;;;;4.78;1.58;;;20.90;96.30;;;;;;4067461;29;20055;-62
2023/08/23 04:17:23;;;;;;;4.75;1.40;;;21.00;96.30;;;;;;4067656;29;20123;-62
2023/08/23 04:19:26;;;;;;;2.95;1.50;;;21.00;96.20;;;;;;4067781;29;20087;-63
2023/08/23 04:21:28;;;;;;;4.32;1.35;;;20.90;96.50;;;;;;4067675;29;20072;-63
2023/08/23 04:23:31;;;;;;;5.13;1.42;;;20.90;96.50;;;;;;4066708;29;20055;-63
2023/08/23 04:25:33;;;;;;;4.25;1.20;;;20.90;96.50;;;;;;4067423;29;20128;-63
2023/08/23 04:27:35;;;;;;;4.75;1.60;;;20.90;96.50;;;;;;4067404;29;20514;-63
2023/08/23 04:29:37;;;;;;;3.50;1.48;;;20.90;96.40;;;;;;4067106;29;20058;-62
2023/08/23 04:31:39;;;;;;;4.30;1.67;;;20.80;96.50;;;;;;4067340;29;20091;-61
2023/08/23 04:33:42;;;;;;;3.70;1.30;;;20.70;96.60;;;;;;4066479;29;20048;-62
2023/08/23 04:35:44;;;;;;;2.08;0.98;;;20.80;96.70;;;;;;4067611;29;20498;-62
2023/08/23 04:37:46;;;;;;;2.40;1.42;;;20.80;96.70;;;;;;4067325;29;20495;-60
2023/08/23 04:39:50;;;;;;;3.85;1.50;;;20.70;96.80;;;;;;4067519;29;20410;-61
2023/08/23 04:41:52;;;;;;;7.38;1.40;;;20.70;97.00;;;;;;4067321;29;20048;-62
2023/08/23 04:43:54;;;;;;;6.63;1.48;;;20.60;96.90;;;;;;4066230;29;20495;-62
2023/08/23 04:45:58;;;;;;;5.72;1.50;;;20.60;97.00;;;;;;4067355;29;20072;-60
2023/08/23 04:48:00;;;;;;;4.75;2.22;;;20.60;96.90;;;;;;4067276;29;20044;-60
2023/08/23 04:50:02;;;;;;;2.75;1.58;;;20.50;97.00;;;;;;4067745;29;20052;-63
2023/08/23 04:52:05;;;;;;;5.63;1.45;;;20.50;97.10;;;;;;4069552;29;20060;-60
2023/08/23 04:54:07;;;;;;;3.45;1.58;;;20.60;97.30;;;;;;4069279;29;20098;-60
2023/08/23 04:56:10;;;;;;;6.13;1.67;;;20.60;97.10;;;;;;4069166;29;20063;-61
2023/08/23 04:58:12;;;;;;;5.70;1.50;;;20.60;97.00;;;;;;4070052;29;20127;-61
2023/08/23 05:00:15;;;;;;;5.38;1.77;;;20.60;97.00;;;;;;4070158;29;20138;-60
2023/08/23 05:02:17;;;;;;;3.25;1.42;;;20.60;97.20;;;;;;4070034;29;20055;-60
2023/08/23 05:04:21;;;;;;;5.35;2.03;;;20.60;97.00;;;;;;4069007;29;20062;-60
2023/08/23 05:06:23;;;;;;;5.22;1.50;;;20.50;97.20;;;;;;4069973;29;20055;-60
2023/08/23 05:08:26;;;;;;;7.13;1.50;;;20.40;97.20;;;;;;4069959;29;20513;-61
2023/08/23 05:10:28;;;;;;;3.08;1.45;;;20.40;97.30;;;;;;4070253;29;20080;-61
2023/08/23 05:12:32;;;;;;;6.22;1.48;;;20.40;97.40;;;;;;4069673;29;20056;-58
2023/08/23 05:14:34;;;;;;;2.93;1.47;;;20.40;97.40;;;;;;4068606;29;20052;-63
2023/08/23 05:16:36;;;;;;;5.45;2.05;;;20.40;97.50;;;;;;4069927;29;20461;-61
2023/08/23 05:18:38;;;;;;;4.15;1.58;;;20.30;97.40;;;;;;4069763;29;20075;-61
2023/08/23 05:20:40;;;;;;;7.10;1.80;;;20.40;97.50;;;;;;4069971;29;20048;-61
2023/08/23 05:22:42;;;;;;;3.15;1.33;;;20.40;97.40;;;;;;4069885;29;20123;-61
2023/08/23 05:24:44;;;;;;;7.50;1.77;;;20.50;97.40;;;;;;4068968;29;20509;-61
2023/08/23 05:26:46;;;;;;;7.65;1.77;;;20.40;97.30;;;;;;4069644;29;20052;-62
2023/08/23 05:28:50;;;;;;;4.05;1.85;;;20.50;97.50;;;;;;4069204;29;20388;-62
2023/08/23 05:30:52;;;;;;;14.55;2.30;;;20.40;97.40;;;;;;4069473;29;20072;-62
2023/08/23 05:32:54;;;;;;;4.30;1.92;;;20.40;97.40;;;;;;4069674;29;20099;-61
2023/08/23 05:34:56;;;;;;;5.85;1.52;;;20.50;97.40;;;;;;4068542;29;20071;-61
2023/08/23 05:36:58;;;;;;;4.82;1.73;;;20.40;97.40;;;;;;4069501;29;20126;-61
2023/08/23 05:39:02;;;;;;;4.78;1.67;;;20.40;97.50;;;;;;4069596;29;20080;-61
2023/08/23 05:41:04;;;;;;;5.03;1.67;;;20.30;97.60;;;;;;4069527;29;20060;-61
2023/08/23 05:43:07;;;;;;;6.18;1.90;;;20.40;97.60;;;;;;4069265;29;20483;-63
2023/08/23 05:45:10;;;;;;;5.68;1.52;;;20.30;97.60;;;;;;4067132;29;20056;-63
2023/08/23 05:47:12;;;;;;;7.43;1.52;;;20.40;97.60;;;;;;4069435;29;20127;-63
2023/08/23 05:49:15;;;;;;;5.05;1.67;;;20.30;97.60;;;;;;4069905;29;20055;-62
2023/08/23 05:51:17;;;;;;;6.55;1.50;;;20.30;97.60;;;;;;4069606;29;20048;-63
2023/08/23 05:53:19;;;;;;;7.00;1.92;;;20.30;97.60;;;;;;4067912;29;20052;-63
2023/08/23 05:55:36;;;;;;;10.77;1.98;;;20.20;97.70;;;;;;4068989;29;20048;-60
2023/08/23 05:57:39;;;;;;;10.85;2.03;;;20.20;97.70;;;;;;4068919;29;20044;-60
2023/08/23 05:59:41;;;;;;;7.07;1.70;;;20.30;97.70;;;;;;4068012;29;20059;-61
2023/08/23 06:01:44;;;;;;;5.57;1.90;;;20.30;97.70;;;;;;4069347;29;20052;-60
2023/08/23 06:03:46;;;;;;;6.53;2.05;;;20.30;97.60;;;;;;4068120;29;20143;-63
2023/08/23 06:05:52;;;;;;;8.43;1.60;;;20.40;97.70;;;;;;4069175;29;20388;-59
2023/08/23 06:07:55;;;;;;;7.15;1.42;;;20.40;97.80;;;;;;4069321;29;20257;-60
2023/08/23 06:09:57;;;;;;;4.90;1.45;;;20.40;97.60;;;;;;4069331;29;20158;-59
2023/08/23 06:12:02;;;;;;;4.82;1.75;;;20.50;97.50;;;;;;4068626;29;20059;-59
2023/08/23 06:14:18;;;;;;;5.88;1.80;;;20.50;97.40;;;;;;4068243;29;20063;-60
2023/08/23 06:16:20;;;;;;;3.20;1.77;;;20.50;97.30;;;;;;4069443;29;20100;-60
2023/08/23 06:18:23;;;;;;;6.85;1.80;;;20.40;97.50;;;;;;4069015;29;20048;-61
2023/08/23 06:20:26;;;;;;;4.10;1.40;;;20.40;97.60;;;;;;4069162;29;20072;-61
2023/08/23 06:22:28;;;;;;;5.97;1.67;;;20.40;97.60;;;;;;4068909;29;20083;-60
2023/08/23 06:24:30;;;;;;;4.68;1.73;;;20.40;97.60;;;;;;4067855;29;20056;-61
2023/08/23 06:26:32;;;;;;;10.77;1.80;;;20.40;97.60;;;;;;4068567;29;20044;-61
2023/08/23 06:28:34;;;;;;;6.30;1.70;;;20.40;97.70;;;;;;4068967;29;20453;-60
2023/08/23 06:30:37;;;;;;;6.00;1.63;;;20.50;97.60;;;;;;4068938;29;20071;-61
2023/08/23 06:32:39;;;;;;;8.85;2.05;;;20.50;97.80;;;;;;4067568;29;20059;-61
2023/08/23 06:34:43;;;;;;;17.25;3.63;;;20.60;97.50;;;;;;4066350;29;20052;-61
2023/08/23 06:36:45;;;;;;;8.23;2.05;;;20.60;97.50;;;;;;4068854;29;20067;-61
2023/08/23 06:38:47;;;;;;;9.57;1.80;;;20.60;97.70;;;;;;4068838;29;20048;-61
2023/08/23 06:40:49;;;;;;;5.70;1.90;;;20.60;97.40;;;;;;4068499;29;20052;-61
2023/08/23 06:42:51;;;;;;;10.85;1.67;;;20.70;97.40;;;;;;4068745;29;20048;-63
2023/08/23 06:44:53;;;;;;;5.82;1.75;;;20.70;97.40;;;;;;4067490;29;20079;-63
2023/08/23 06:46:58;;;;;;;4.88;1.70;;;20.80;97.40;;;;;;4068747;29;20056;-63
2023/08/23 06:49:00;;;;;;;12.18;1.88;;;20.80;97.30;;;;;;4068625;29;20055;-62
2023/08/23 06:51:04;;;;;;;9.32;2.05;;;20.90;97.20;;;;;;4068794;29;20048;-63
2023/08/23 06:53:06;;;;;;;7.68;1.90;;;20.90;97.20;;;;;;4067628;29;20078;-61
2023/08/23 06:55:09;;;;;;;18.20;1.95;;;21.00;97.20;;;;;;4067437;29;20047;-61
2023/08/23 06:57:11;;;;;;;5.80;1.88;;;20.90;97.10;;;;;;4068516;29;20047;-61
2023/08/23 06:59:13;;;;;;;13.68;2.33;;;20.90;97.20;;;;;;4068421;29;20048;-63
2023/08/23 07:01:16;;;;;;;6.68;1.77;;;20.90;97.30;;;;;;4069019;29;20056;-61
2023/08/23 07:03:18;;;;;;;9.25;2.45;;;21.00;97.20;;;;;;4068697;29;20141;-63
2023/08/23 07:05:20;;;;;;;11.15;2.00;;;21.00;97.20;;;;;;4067553;29;20052;-61
2023/08/23 07:07:23;;;;;;;9.65;2.28;;;21.00;97.20;;;;;;4068535;29;20566;-61
2023/08/23 07:09:25;;;;;;;9.57;2.13;;;21.10;97.10;;;;;;4068309;29;20056;-63
2023/08/23 07:11:27;;;;;;;11.10;2.50;;;21.10;97.10;;;;;;4068100;29;20087;-63
2023/08/23 07:13:30;;;;;;;12.07;2.03;;;21.10;97.00;;;;;;4068383;29;20062;-61
2023/08/23 07:15:35;;;;;;;5.38;2.30;;;21.30;97.00;;;;;;4066527;29;20052;-63
2023/08/23 07:17:38;;;;;;;8.20;3.05;;;21.30;96.90;;;;;;4068264;29;20051;-64
2023/08/23 07:19:40;;;;;;;11.18;2.58;;;21.30;96.80;;;;;;4068407;29;20051;-62
2023/08/23 07:21:42;;;;;;;6.55;2.20;;;21.40;96.80;;;;;;4068473;29;20143;-63
2023/08/23 07:23:46;;;;;;;11.27;2.65;;;21.40;96.80;;;;;;4066940;29;20059;-61
2023/08/23 07:25:48;;;;;;;19.17;3.10;;;21.50;96.70;;;;;;4067788;29;20052;-62
2023/08/23 07:27:50;;;;;;;7.45;2.53;;;21.60;96.50;;;;;;4068202;29;20072;-62
2023/08/23 07:29:52;;;;;;;8.15;2.25;;;21.60;96.60;;;;;;4067987;29;20052;-62
2023/08/23 07:31:54;;;;;;;9.57;2.42;;;21.70;96.40;;;;;;4068273;29;20479;-63
2023/08/23 07:33:56;;;;;;;12.90;2.28;;;21.80;96.40;;;;;;4067456;29;20052;-63
2023/08/23 07:36:00;;;;;;;10.10;2.05;;;21.80;96.30;;;;;;4068579;29;20055;-62
2023/08/23 07:38:02;;;;;;;7.88;2.40;;;21.90;96.20;;;;;;4067619;29;20040;-62
2023/08/23 07:40:08;;;;;;;10.05;2.10;;;21.90;96.20;;;;;;4068216;29;20067;-63
2023/08/23 07:42:11;;;;;;;14.00;3.05;;;21.90;96.00;;;;;;4068057;29;20462;-62
2023/08/23 07:44:13;;;;;;;11.63;2.25;;;22.00;96.10;;;;;;4065832;29;20415;-63
2023/08/23 07:46:15;;;;;;;6.47;2.38;;;22.10;96.00;;;;;;4067898;29;20491;-61
2023/08/23 07:48:17;;;;;;;7.95;2.15;;;22.10;95.90;;;;;;4067944;29;20115;-63
2023/08/23 07:50:20;;;;;;;10.20;2.03;;;22.20;95.90;;;;;;4068073;29;20124;-63
2023/08/23 07:52:22;;;;;;;14.57;4.53;;;22.40;96.00;;;;;;4066698;29;20065;-62
2023/08/23 07:54:24;;;;;;;5.40;2.45;;;22.50;95.60;;;;;;4067012;29;20051;-63
2023/08/23 07:56:27;;;;;;;8.20;2.05;;;22.50;95.50;;;;;;4067789;29;20056;-63
2023/08/23 07:58:29;;;;;;;13.20;2.72;;;22.70;95.40;;;;;;4067861;29;20067;-61
2023/08/23 08:00:31;;;;;;;10.32;2.22;;;22.70;95.30;;;;;;4067900;29;20491;-62
2023/08/23 08:02:34;;;;;;;7.18;2.30;;;22.80;95.50;;;;;;4066999;29;20052;-61
2023/08/23 08:04:36;;;;;;;5.82;1.67;;;22.80;95.20;;;;;;4066836;29;20103;-62
2023/08/23 08:06:39;;;;;;;5.70;1.90;;;22.80;95.30;;;;;;4067572;29;20111;-61
2023/08/23 08:08:42;;;;;;;10.23;2.22;;;22.70;95.30;;;;;;4067905;29;20522;-61
2023/08/23 08:10:45;;;;;;;10.80;3.25;;;22.80;95.40;;;;;;4067891;29;20051;-63
2023/08/23 08:12:48;;;;;;;12.13;3.10;;;23.00;95.30;;;;;;4067674;29;20060;-64
2023/08/23 08:14:50;;;;;;;6.28;2.45;;;23.00;95.20;;;;;;4066649;29;20044;-61
2023/08/23 08:16:52;;;;;;;16.50;7.85;;;23.10;95.10;;;;;;4067917;29;20058;-62
2023/08/23 08:18:54;;;;;;;8.30;2.67;;;23.20;94.90;;;;;;4068066;29;20055;-62
2023/08/23 08:20:56;;;;;;;6.85;2.47;;;23.10;94.90;;;;;;4066885;29;20056;-62
2023/08/23 08:22:58;;;;;;;6.00;1.80;;;23.20;94.90;;;;;;4066295;29;20128;-61
2023/08/23 08:25:01;;;;;;;14.68;2.70;;;23.40;94.90;;;;;;4066792;29;20460;-61
2023/08/23 08:27:03;;;;;;;22.52;3.72;;;23.50;94.90;;;;;;4070252;29;20080;-62
2023/08/23 08:29:06;;;;;;;17.30;4.15;;;23.60;94.70;;;;;;4072519;29;20059;-67
2023/08/23 08:31:09;;;;;;;13.70;3.60;;;23.60;94.60;;;;;;4071769;29;20052;-62
2023/08/23 08:33:11;;;;;;;12.88;2.58;;;23.60;94.60;;;;;;4072125;29;20051;-62
2023/08/23 08:35:13;;;;;;;9.00;2.10;;;23.50;94.70;;;;;;4073163;29;20059;-61
2023/08/23 08:37:15;;;;;;;10.45;2.63;;;23.60;94.70;;;;;;4072445;29;20498;-61
2023/08/23 08:39:17;;;;;;;12.43;2.28;;;23.60;94.60;;;;;;4071775;29;20476;-62
2023/08/23 08:41:19;;;;;;;7.32;2.25;;;23.70;94.70;;;;;;4071036;29;20047;-62
2023/08/23 08:43:23;;;;;;;6.80;2.70;;;23.80;94.50;;;;;;4071046;29;20442;-63
2023/08/23 08:45:27;;;;;;;9.13;2.35;;;23.70;94.30;;;;;;4069007;29;20127;-62
2023/08/23 08:47:29;;;;;;;6.10;1.90;;;23.70;94.50;;;;;;4071068;29;20504;-62
2023/08/23 08:49:31;;;;;;;8.50;2.30;;;23.80;94.70;;;;;;4071188;29;20052;-62
2023/08/23 08:51:36;;;;;;;8.02;2.78;;;23.90;94.50;;;;;;4070602;29;20088;-62
2023/08/23 08:53:39;;;;;;;12.52;2.42;;;24.00;94.30;;;;;;4071259;29;20055;-63
2023/08/23 08:55:42;;;;;;;11.32;3.00;;;24.00;94.30;;;;;;4071618;29;20075;-62
2023/08/23 08:57:48;;;;;;;18.15;3.13;;;24.00;94.20;;;;;;4070856;29;20079;-62
2023/08/23 08:59:52;;;;;;;9.13;2.72;;;24.10;95.50;;;;;;4070778;29;20048;-63
2023/08/23 09:01:58;;;;;;;16.25;2.50;;;24.10;95.00;;;;;;4071056;29;20056;-63
2023/08/23 09:04:03;;;;;;;11.52;2.50;;;24.10;94.80;;;;;;4070130;29;20436;-62
2023/08/23 09:06:05;;;;;;;11.95;2.58;;;24.10;95.10;;;;;;4070113;29;20107;-62
2023/08/23 09:08:07;;;;;;;14.40;2.78;;;24.30;95.10;;;;;;4071092;29;20405;-65
2023/08/23 09:10:10;;;;;;;9.65;2.10;;;24.40;94.80;;;;;;4071316;29;20055;-62
2023/08/23 09:12:13;;;;;;;9.38;1.85;;;24.50;94.30;;;;;;4072343;29;20056;-62
2023/08/23 09:14:15;;;;;;;7.50;2.17;;;24.60;94.40;;;;;;4072977;29;20088;-63
2023/08/23 09:16:17;;;;;;;9.48;2.20;;;24.70;94.30;;;;;;4074165;29;20068;-62
2023/08/23 09:18:21;;;;;;;6.60;2.10;;;24.70;93.80;;;;;;4074586;29;20056;-62
2023/08/23 09:20:24;;;;;;;13.00;2.47;;;24.70;94.00;;;;;;4075402;29;20080;-62
2023/08/23 09:22:26;;;;;;;16.25;2.50;;;24.90;93.80;;;;;;4078377;29;20044;-62
2023/08/23 09:24:28;;;;;;;8.63;2.22;;;24.90;93.50;;;;;;4078667;29;20063;-64
2023/08/23 09:26:30;;;;;;;13.32;2.40;;;24.90;93.50;;;;;;4076827;29;20075;-62
2023/08/23 09:28:32;;;;;;;11.23;2.22;;;25.00;93.50;;;;;;4074688;29;20065;-64
2023/08/23 09:30:34;;;;;;;13.65;2.67;;;25.10;93.30;;;;;;4074361;29;20056;-65
2023/08/23 09:32:40;;;;;;;6.10;2.05;;;25.20;92.90;;;;;;4074939;29;20048;-63
2023/08/23 09:34:44;;;;;;;12.10;2.65;;;25.20;93.00;;;;;;4074100;29;20131;-64
2023/08/23 09:36:47;;;;;;;11.15;2.50;;;25.20;93.00;;;;;;4074903;29;20056;-63
2023/08/23 09:38:49;;;;;;;7.50;2.13;;;25.30;93.00;;;;;;4074870;29;20080;-61
2023/08/23 09:40:51;;;;;;;6.70;2.13;;;25.40;92.90;;;;;;4075674;29;20048;-61
2023/08/23 09:42:54;;;;;;;8.32;2.47;;;25.60;92.80;;;;;;4076860;29;20387;-66
2023/08/23 09:45:02;;;;;;;11.32;2.42;;;25.50;92.60;;;;;;4075262;29;20044;-64
2023/08/23 09:47:07;;;;;;;9.10;2.25;;;25.70;92.80;;;;;;4075125;29;20048;-65
2023/08/23 09:49:10;;;;;;;9.10;2.22;;;25.70;92.40;;;;;;4074539;29;20414;-63
2023/08/23 09:51:14;;;;;;;6.85;2.20;;;25.70;92.40;;;;;;4090983;29;20051;-63
2023/08/23 09:53:22;;;;;;;13.13;2.60;;;25.70;92.40;;;;;;4075790;29;20072;-64
2023/08/23 09:55:25;;;;;;;8.18;2.95;;;25.70;92.40;;;;;;4073883;29;20062;-63
2023/08/23 09:57:27;;;;;;;10.20;2.65;;;25.80;92.20;;;;;;4075739;29;20044;-62
2023/08/23 09:59:30;;;;;;;8.00;2.20;;;26.00;92.40;;;;;;4075392;29;20052;-63
2023/08/23 10:01:32;;;;;;;11.40;2.28;;;26.10;92.20;;;;;;4073172;29;20052;-63
2023/08/23 10:03:35;;;;;;;10.93;2.15;;;26.20;92.00;;;;;;4071739;29;20059;-62
2023/08/23 10:05:39;;;;;;;13.18;2.65;;;26.20;91.70;;;;;;4072505;29;20044;-62
2023/08/23 10:07:42;;;;;;;6.55;2.47;;;26.30;91.80;;;;;;4075188;29;20072;-63
2023/08/23 10:09:46;;;;;;;7.35;2.25;;;26.40;91.90;;;;;;4072660;29;20054;-64
2023/08/23 10:11:49;;;;;;;7.32;2.47;;;26.40;91.80;;;;;;4074051;29;20056;-61
2023/08/23 10:13:58;;;;;;;7.38;2.03;;;26.40;91.70;;;;;;4072538;29;20058;-62
2023/08/23 10:16:03;;;;;;;9.15;2.47;;;26.40;91.60;;;;;;4056189;29;20108;-62
2023/08/23 10:18:09;;;;;;;11.75;2.88;;;26.50;91.60;;;;;;4054911;29;20052;-62
2023/08/23 10:20:12;;;;;;;10.20;2.63;;;26.50;91.60;;;;;;4055725;29;20049;-60
2023/08/23 10:22:14;;;;;;;7.82;2.47;;;26.50;91.70;;;;;;4055349;29;20048;-60
2023/08/23 10:24:22;;;;;;;12.75;2.83;;;26.60;91.80;;;;;;4055086;29;20075;-62
2023/08/23 10:26:26;;;;;;;13.82;3.05;;;26.60;91.70;;;;;;4056259;29;20055;-60
2023/08/23 10:28:28;;;;;;;8.13;2.20;;;26.70;91.60;;;;;;4057275;29;20052;-62
2023/08/23 10:30:33;;;;;;;11.82;2.88;;;26.70;91.60;;;;;;4054866;29;20049;-64
2023/08/23 10:32:36;;;;;;;9.70;2.50;;;26.70;91.50;;;;;;4054555;29;20475;-62
2023/08/23 10:34:42;;;;;;;10.02;2.55;;;26.70;91.20;;;;;;4054274;29;20056;-61
2023/08/23 10:36:44;;;;;;;8.38;2.55;;;26.80;91.40;;;;;;4056353;29;20044;-60
2023/08/23 10:38:47;;;;;;;10.68;2.45;;;26.90;90.80;;;;;;4054936;29;20539;-62